Time;durP1;ratioP1;P1;durP2;ratioP2;P2;SDS_P1;SDS_P2;PMS_P1;PMS_P2;Temp;Humidity;BMP_temperature;BMP_pressure;BME280_temperature;BME280_humidity;BME280_pressure;Samples;Min_cycle;Max_cycle;Signal;HPM_P1;HPM_P2
2022/05/11 00:01:32;;;;;;;13.93;7.50;;;18.50;93.40;;;;;;5013389;28;20424;-82
2022/05/11 00:03:59;;;;;;;14.00;7.93;;;18.50;93.80;;;;;;5012986;28;20499;-83
2022/05/11 00:06:27;;;;;;;11.37;8.10;;;18.50;93.60;;;;;;5013282;28;20436;-82
2022/05/11 00:08:53;;;;;;;11.20;8.30;;;18.50;93.50;;;;;;5013330;28;20412;-82
2022/05/11 00:11:20;;;;;;;8.47;7.03;;;18.50;93.40;;;;;;5015303;28;20789;-82
2022/05/11 00:13:46;;;;;;;11.60;7.93;;;18.50;93.50;;;;;;5013231;28;20420;-81
2022/05/11 00:16:11;;;;;;;9.80;7.63;;;18.50;93.80;;;;;;5015309;28;20524;-82
2022/05/11 00:18:38;;;;;;;10.63;8.17;;;18.50;94.10;;;;;;5014357;28;20526;-82
2022/05/11 00:21:04;;;;;;;11.63;7.93;;;18.40;94.90;;;;;;5013013;28;20715;-82
2022/05/11 00:23:30;;;;;;;12.53;8.17;;;18.40;94.90;;;;;;5013440;28;20475;-83
2022/05/11 00:25:55;;;;;;;13.40;8.13;;;18.30;95.60;;;;;;5013171;28;20205;-82
2022/05/11 00:28:21;;;;;;;13.00;10.10;;;18.20;96.40;;;;;;5014991;28;20181;-82
2022/05/11 00:30:48;;;;;;;10.73;8.33;;;18.10;96.10;;;;;;5029545;28;20478;-81
2022/05/11 00:33:15;;;;;;;14.00;7.50;;;18.10;95.50;;;;;;5012660;28;20267;-82
2022/05/11 00:35:42;;;;;;;10.80;7.67;;;18.00;95.30;;;;;;5012972;28;20494;-82
2022/05/11 00:38:08;;;;;;;10.77;8.67;;;18.00;95.10;;;;;;5014794;28;20620;-82
2022/05/11 00:40:40;;;;;;;11.47;7.40;;;18.00;95.20;;;;;;5012672;28;20519;-82
2022/05/11 00:43:06;;;;;;;18.30;8.97;;;18.00;95.50;;;;;;5012275;28;20474;-82
2022/05/11 00:45:32;;;;;;;9.87;8.53;;;18.00;95.60;;;;;;5012738;28;20436;-83
2022/05/11 00:49:33;;;;;;;11.50;8.70;;;17.90;95.90;;;;;;5016805;28;20174;-82
2022/05/11 00:50:52;;;;;;;14.27;9.20;;;17.80;95.90;;;;;;5018095;28;20173;-82
2022/05/11 00:53:18;;;;;;;10.63;8.27;;;17.80;96.50;;;;;;5016419;28;20408;-82
2022/05/11 00:55:50;;;;;;;10.60;8.93;;;17.70;96.90;;;;;;5015999;28;20507;-78
2022/05/11 00:58:36;;;;;;;12.87;8.27;;;17.70;96.40;;;;;;5013827;28;20416;-78
2022/05/11 01:01:03;;;;;;;11.37;8.03;;;17.70;96.60;;;;;;5014115;28;20416;-78
2022/05/11 01:03:36;;;;;;;8.97;7.63;;;17.70;96.60;;;;;;5014015;28;20467;-78
2022/05/11 01:06:02;;;;;;;10.20;8.17;;;17.70;96.50;;;;;;5014378;28;20474;-79
2022/05/11 01:08:29;;;;;;;12.17;8.97;;;17.70;96.30;;;;;;5014397;28;20415;-79
2022/05/11 01:10:55;;;;;;;13.43;8.10;;;17.70;96.70;;;;;;5015683;28;20193;-79
2022/05/11 01:13:21;;;;;;;14.37;7.33;;;17.70;96.30;;;;;;5014141;28;20463;-79
2022/05/11 01:15:50;;;;;;;9.90;8.00;;;17.70;96.50;;;;;;5014328;28;20746;-79
2022/05/11 01:18:18;;;;;;;9.93;7.10;;;17.70;96.10;;;;;;5014361;28;20419;-79
2022/05/11 01:20:44;;;;;;;9.37;7.30;;;17.70;95.50;;;;;;5014075;28;20416;-79
2022/05/11 01:23:29;;;;;;;10.50;7.10;;;17.80;95.10;;;;;;5013743;28;20825;-78
2022/05/11 01:25:54;;;;;;;10.93;7.60;;;17.90;95.10;;;;;;5015894;28;20432;-79
2022/05/11 01:28:20;;;;;;;13.03;7.23;;;17.90;94.90;;;;;;5014607;28;20413;-79
2022/05/11 01:30:49;;;;;;;11.80;8.10;;;17.90;95.10;;;;;;5015817;28;20185;-79
2022/05/11 01:33:19;;;;;;;10.93;7.03;;;18.00;95.20;;;;;;5013801;28;20681;-79
2022/05/11 01:36:07;;;;;;;12.10;7.33;;;18.00;94.80;;;;;;5015294;28;20532;-79
2022/05/11 01:38:40;;;;;;;10.97;7.97;;;18.00;95.30;;;;;;5014102;28;20424;-79
2022/05/11 01:41:06;;;;;;;11.73;7.47;;;18.00;95.00;;;;;;5013983;28;20482;-79
2022/05/11 01:43:35;;;;;;;11.73;7.57;;;18.00;95.40;;;;;;5014615;28;20455;-79
2022/05/11 01:46:01;;;;;;;12.03;8.30;;;17.90;95.40;;;;;;5016308;28;20441;-79
2022/05/11 01:48:27;;;;;;;11.13;7.30;;;17.90;95.60;;;;;;5014149;28;20419;-77
2022/05/11 01:50:53;;;;;;;10.97;7.97;;;17.90;95.30;;;;;;5014474;28;20409;-79
2022/05/11 01:53:20;;;;;;;12.47;8.83;;;17.90;95.60;;;;;;5014190;28;20419;-79
2022/05/11 01:55:46;;;;;;;10.80;8.30;;;17.90;96.20;;;;;;5013820;28;20502;-79
2022/05/11 01:58:12;;;;;;;9.97;8.30;;;17.90;96.20;;;;;;5014512;28;20482;-79
2022/05/11 02:00:40;;;;;;;15.60;8.93;;;17.80;96.20;;;;;;5016243;28;20422;-79
2022/05/11 02:03:06;;;;;;;10.97;8.43;;;17.80;96.70;;;;;;5013869;28;20455;-78
2022/05/11 02:08:16;;;;;;;8.43;7.47;;;17.70;97.30;;;;;;5015476;28;20248;-78
2022/05/11 02:10:42;;;;;;;10.00;7.73;;;17.60;97.30;;;;;;5014665;28;20412;-79
2022/05/11 02:13:08;;;;;;;9.77;8.07;;;17.60;97.30;;;;;;5013425;28;20239;-79
2022/05/11 02:15:36;;;;;;;11.73;8.80;;;17.60;97.30;;;;;;5014920;28;20201;-78
2022/05/11 02:18:01;;;;;;;12.90;8.30;;;17.60;97.30;;;;;;5013412;28;20976;-79
2022/05/11 02:20:27;;;;;;;10.70;7.70;;;17.60;97.30;;;;;;5013510;28;20613;-78
2022/05/11 02:22:53;;;;;;;13.40;8.47;;;17.60;97.30;;;;;;5012890;28;20185;-79
2022/05/11 02:25:19;;;;;;;10.07;8.20;;;17.60;97.10;;;;;;5014007;28;20227;-79
2022/05/11 02:27:46;;;;;;;12.57;8.20;;;17.60;97.00;;;;;;5013423;28;20204;-78
2022/05/11 02:30:20;;;;;;;11.63;8.10;;;17.60;97.00;;;;;;5012371;28;20420;-79
2022/05/11 02:32:45;;;;;;;10.57;8.90;;;17.60;96.90;;;;;;5012103;28;20413;-78
2022/05/11 02:35:15;;;;;;;12.73;8.07;;;17.60;96.60;;;;;;5013687;28;20439;-78
2022/05/11 02:37:57;;;;;;;10.90;7.70;;;17.50;96.60;;;;;;5011746;28;20185;-78
2022/05/11 02:40:29;;;;;;;10.80;8.10;;;17.50;96.80;;;;;;5012064;28;20432;-78
2022/05/11 02:42:54;;;;;;;9.87;8.20;;;17.50;96.80;;;;;;5011489;28;20427;-79
2022/05/11 02:45:22;;;;;;;11.30;8.20;;;17.50;96.80;;;;;;5012932;28;20436;-79
2022/05/11 02:47:48;;;;;;;9.50;7.90;;;17.40;96.90;;;;;;5013353;28;20185;-78
2022/05/11 02:50:18;;;;;;;14.13;9.23;;;17.40;97.00;;;;;;5013636;28;20412;-78
2022/05/11 02:52:44;;;;;;;11.23;9.03;;;17.40;97.10;;;;;;5011659;28;20422;-78
2022/05/11 02:55:10;;;;;;;12.07;9.40;;;17.40;97.30;;;;;;5011335;28;20473;-78
2022/05/11 02:57:35;;;;;;;14.13;8.97;;;17.30;97.30;;;;;;5011563;28;20780;-78
2022/05/11 03:00:03;;;;;;;12.17;8.97;;;17.30;97.30;;;;;;5012511;28;20232;-75
2022/05/11 03:02:29;;;;;;;12.60;9.50;;;17.20;97.30;;;;;;5009608;28;20657;-75
2022/05/11 03:04:54;;;;;;;13.90;9.50;;;17.20;97.30;;;;;;5009596;28;20766;-75
2022/05/11 03:07:20;;;;;;;10.70;8.83;;;17.10;97.30;;;;;;5009655;28;20906;-75
2022/05/11 03:09:45;;;;;;;13.70;9.20;;;17.10;97.30;;;;;;5009446;28;20216;-75
2022/05/11 03:12:11;;;;;;;13.20;9.23;;;17.00;97.30;;;;;;5009873;28;20201;-75
2022/05/11 03:14:38;;;;;;;15.40;9.73;;;17.00;97.30;;;;;;5009410;28;20188;-75
2022/05/11 03:17:03;;;;;;;12.50;9.70;;;17.00;97.30;;;;;;5009391;28;20475;-75
2022/05/11 03:19:29;;;;;;;13.40;10.10;;;17.00;97.30;;;;;;5010593;28;20455;-75
2022/05/11 03:21:55;;;;;;;14.80;9.70;;;17.00;97.30;;;;;;5009485;28;20192;-75
2022/05/11 03:24:21;;;;;;;14.73;10.30;;;16.90;97.30;;;;;;5010605;28;20700;-75
2022/05/11 03:26:47;;;;;;;12.67;9.57;;;16.90;97.30;;;;;;5009309;28;21019;-75
2022/05/11 03:29:12;;;;;;;12.87;9.30;;;16.90;97.30;;;;;;5009210;28;20178;-75
2022/05/11 03:31:39;;;;;;;11.80;9.40;;;16.90;97.30;;;;;;5009276;28;20192;-75
2022/05/11 03:36:51;;;;;;;12.87;9.40;;;16.90;97.30;;;;;;5011253;28;20443;-78
2022/05/11 03:39:18;;;;;;;12.30;9.90;;;16.80;97.30;;;;;;5010789;28;20424;-78
2022/05/11 03:41:47;;;;;;;16.30;10.47;;;16.80;97.30;;;;;;5010997;28;20540;-78
2022/05/11 03:44:14;;;;;;;15.90;10.33;;;16.80;97.30;;;;;;5012967;28;20864;-79
2022/05/11 03:46:40;;;;;;;10.80;8.93;;;16.80;97.30;;;;;;5012913;28;20440;-78
2022/05/11 03:49:05;;;;;;;19.03;10.17;;;16.70;97.30;;;;;;5012151;28;20780;-79
2022/05/11 03:51:31;;;;;;;18.03;9.80;;;16.70;97.30;;;;;;5012490;28;20179;-78
2022/05/11 03:53:57;;;;;;;14.17;10.60;;;16.70;97.30;;;;;;5012442;28;20493;-79
2022/05/11 03:56:23;;;;;;;11.13;9.60;;;16.70;97.30;;;;;;5012445;28;20205;-79
2022/05/11 03:58:48;;;;;;;17.97;11.40;;;16.60;97.30;;;;;;5013557;28;20628;-78
2022/05/11 04:01:14;;;;;;;16.50;10.30;;;16.60;97.30;;;;;;5012226;28;20209;-79
2022/05/11 04:03:41;;;;;;;17.80;11.10;;;16.60;97.30;;;;;;5012145;28;20209;-78
2022/05/11 04:06:06;;;;;;;15.93;10.53;;;16.70;97.30;;;;;;5012195;28;20447;-79
2022/05/11 04:08:33;;;;;;;15.23;10.30;;;16.70;97.30;;;;;;5013114;28;20808;-81
2022/05/11 04:10:58;;;;;;;12.17;10.40;;;16.70;97.30;;;;;;5013043;28;20439;-79
2022/05/11 04:13:25;;;;;;;14.40;10.33;;;16.70;97.30;;;;;;5011984;28;20412;-79
2022/05/11 04:15:53;;;;;;;16.03;9.90;;;16.60;97.30;;;;;;5012090;28;20206;-79
2022/05/11 04:18:20;;;;;;;13.97;10.77;;;16.70;97.30;;;;;;5009962;28;20423;-81
2022/05/11 04:20:46;;;;;;;15.43;10.97;;;16.70;97.30;;;;;;5012041;28;20424;-79
2022/05/11 04:23:12;;;;;;;15.53;10.60;;;16.70;97.30;;;;;;5016614;28;20472;-79
2022/05/11 04:25:38;;;;;;;16.93;11.13;;;16.70;97.30;;;;;;5031771;28;20450;-79
2022/05/11 04:28:07;;;;;;;14.03;10.23;;;16.70;97.30;;;;;;5019784;28;20913;-79
2022/05/11 04:30:33;;;;;;;16.90;11.63;;;16.70;97.30;;;;;;5016298;28;20474;-78
2022/05/11 04:33:00;;;;;;;16.00;10.37;;;16.80;97.30;;;;;;5015060;28;20451;-79
2022/05/11 04:35:30;;;;;;;15.80;11.30;;;16.80;97.30;;;;;;5015507;28;20517;-78
2022/05/11 04:37:59;;;;;;;19.50;11.17;;;16.80;97.30;;;;;;5014299;28;20460;-79
2022/05/11 04:40:26;;;;;;;17.37;11.50;;;16.80;97.30;;;;;;5015404;28;20416;-78
2022/05/11 04:42:52;;;;;;;12.57;9.33;;;16.80;97.30;;;;;;5014203;28;20546;-79
2022/05/11 04:45:18;;;;;;;14.27;10.67;;;16.70;97.30;;;;;;5015346;28;21196;-79
2022/05/11 04:47:43;;;;;;;15.60;11.30;;;16.70;97.30;;;;;;5015249;28;20400;-79
2022/05/11 04:50:11;;;;;;;16.80;11.00;;;16.70;97.30;;;;;;5015377;28;20208;-79
2022/05/11 04:52:37;;;;;;;15.87;10.70;;;16.70;97.30;;;;;;5015691;28;20721;-79
2022/05/11 04:55:04;;;;;;;17.50;10.90;;;16.70;97.30;;;;;;5014172;28;20468;-79
2022/05/11 04:57:30;;;;;;;13.40;10.80;;;16.80;97.30;;;;;;5014174;28;20553;-80
2022/05/11 04:59:56;;;;;;;16.53;10.77;;;16.80;97.30;;;;;;5014190;28;20424;-79
2022/05/11 05:02:24;;;;;;;16.97;11.13;;;16.80;97.30;;;;;;5014672;28;20182;-79
2022/05/11 05:04:51;;;;;;;16.43;11.30;;;16.90;97.30;;;;;;5011387;28;21000;-80
2022/05/11 05:07:18;;;;;;;15.00;11.63;;;16.90;97.30;;;;;;5012019;28;20511;-79
2022/05/11 05:09:44;;;;;;;19.83;11.93;;;16.90;97.30;;;;;;5010589;28;20481;-79
2022/05/11 05:12:11;;;;;;;18.53;11.37;;;17.00;97.30;;;;;;5010680;28;21008;-80
2022/05/11 05:14:37;;;;;;;18.73;11.43;;;17.00;97.30;;;;;;5010199;28;20534;-79
2022/05/11 05:17:09;;;;;;;20.60;12.20;;;17.00;97.30;;;;;;5011827;28;20421;-79
2022/05/11 05:19:37;;;;;;;17.07;12.10;;;17.10;97.30;;;;;;5010629;28;20439;-79
2022/05/11 05:22:03;;;;;;;16.50;11.93;;;17.10;97.30;;;;;;5011857;28;20784;-79
2022/05/11 05:24:30;;;;;;;19.13;11.10;;;17.20;97.30;;;;;;5011765;28;20463;-79
2022/05/11 05:26:56;;;;;;;15.93;11.00;;;17.20;97.30;;;;;;5010722;28;20185;-80
2022/05/11 05:32:06;;;;;;;19.63;10.43;;;17.30;97.30;;;;;;5011386;28;20404;-79
2022/05/11 05:34:31;;;;;;;20.40;10.60;;;17.40;97.30;;;;;;5010056;28;20706;-79
2022/05/11 05:36:57;;;;;;;16.20;10.60;;;17.50;97.30;;;;;;5010204;28;20424;-79
2022/05/11 05:39:22;;;;;;;16.83;10.33;;;17.60;97.30;;;;;;5011300;28;20299;-79
2022/05/11 05:41:48;;;;;;;18.20;10.37;;;17.70;97.30;;;;;;5009999;28;20205;-79
2022/05/11 05:44:14;;;;;;;20.53;11.43;;;17.80;97.30;;;;;;5010204;28;20589;-79
2022/05/11 05:46:39;;;;;;;17.83;10.40;;;17.90;97.30;;;;;;5011241;28;20189;-80
2022/05/11 05:49:05;;;;;;;14.83;10.03;;;18.00;97.30;;;;;;5009991;28;20694;-79
2022/05/11 05:51:31;;;;;;;15.83;10.33;;;18.00;97.30;;;;;;5009500;28;20566;-79
2022/05/11 05:53:57;;;;;;;15.20;10.40;;;18.00;97.30;;;;;;4974134;28;1072453;-79
2022/05/11 05:56:24;;;;;;;18.20;10.33;;;18.10;97.30;;;;;;5010521;28;20201;-79
2022/05/11 05:58:50;;;;;;;16.83;9.87;;;18.10;97.30;;;;;;5010969;28;20177;-79
2022/05/11 06:01:19;;;;;;;16.17;9.60;;;18.20;97.30;;;;;;5010697;28;20863;-79
2022/05/11 06:03:44;;;;;;;15.93;9.80;;;18.20;97.30;;;;;;5012022;28;20533;-79
2022/05/11 06:06:10;;;;;;;17.60;10.03;;;18.30;97.30;;;;;;5011928;28;20487;-79
2022/05/11 06:08:37;;;;;;;14.73;9.40;;;18.30;97.30;;;;;;5010703;28;20176;-79
2022/05/11 06:11:04;;;;;;;13.30;9.73;;;18.40;97.30;;;;;;5011499;28;20409;-77
2022/05/11 06:13:29;;;;;;;17.00;10.37;;;18.40;97.30;;;;;;5011370;28;20424;-79
2022/05/11 06:15:56;;;;;;;16.10;9.13;;;18.50;97.30;;;;;;5010313;28;20523;-80
2022/05/11 06:18:24;;;;;;;16.00;9.30;;;18.60;97.30;;;;;;5010821;28;20191;-80
2022/05/11 06:20:51;;;;;;;11.63;8.47;;;18.60;97.30;;;;;;5011983;28;20548;-79
2022/05/11 06:23:21;;;;;;;18.00;10.30;;;18.70;97.30;;;;;;5012065;28;20448;-80
2022/05/11 06:25:50;;;;;;;27.50;15.50;;;18.70;97.30;;;;;;5010041;28;20444;-79
2022/05/11 06:28:17;;;;;;;15.50;10.40;;;18.80;97.30;;;;;;5010095;28;20856;-79
2022/05/11 06:30:43;;;;;;;14.30;8.23;;;18.80;97.30;;;;;;5010046;28;20417;-79
2022/05/11 06:33:09;;;;;;;16.10;8.97;;;18.80;97.30;;;;;;5010291;28;20431;-79
2022/05/11 06:35:34;;;;;;;13.27;8.73;;;18.80;97.30;;;;;;5009790;28;20228;-79
2022/05/11 06:38:05;;;;;;;13.60;8.20;;;18.90;97.30;;;;;;5011150;28;20235;-80
2022/05/11 06:40:31;;;;;;;14.60;8.60;;;19.00;97.30;;;;;;5009928;28;20237;-79
2022/05/11 06:42:57;;;;;;;10.70;8.00;;;19.10;97.30;;;;;;5009691;28;20428;-79
2022/05/11 06:45:23;;;;;;;11.83;8.10;;;19.20;97.30;;;;;;5009235;28;20438;-78
2022/05/11 06:47:49;;;;;;;9.53;7.50;;;19.40;97.30;;;;;;5011115;28;20408;-79
2022/05/11 06:50:16;;;;;;;10.17;7.40;;;19.60;95.90;;;;;;5009731;28;20423;-79
2022/05/11 06:52:42;;;;;;;13.93;7.50;;;19.80;95.50;;;;;;5010223;28;20427;-79
2022/05/11 07:00:36;;;;;;;10.20;6.80;;;20.20;93.80;;;;;;5011560;28;20427;-79
2022/05/11 07:03:02;;;;;;;10.77;7.00;;;20.30;93.00;;;;;;5011049;28;20417;-80
2022/05/11 07:05:29;;;;;;;10.23;6.67;;;20.50;93.20;;;;;;5010093;28;20201;-80
2022/05/11 07:07:55;;;;;;;14.20;7.33;;;20.60;94.00;;;;;;5012217;28;20431;-80
2022/05/11 07:10:21;;;;;;;8.83;7.10;;;20.80;91.50;;;;;;5013536;28;20411;-81
2022/05/11 07:12:47;;;;;;;9.50;7.00;;;20.90;91.30;;;;;;5013465;28;20627;-82
2022/05/11 07:15:16;;;;;;;11.70;7.50;;;21.00;91.50;;;;;;5013392;28;20208;-80
2022/05/11 07:17:56;;;;;;;15.53;7.30;;;21.10;90.50;;;;;;5012596;28;20808;-82
2022/05/11 07:20:33;;;;;;;8.13;6.23;;;21.30;90.30;;;;;;5013199;28;20964;-81
2022/05/11 07:23:01;;;;;;;8.83;6.67;;;21.40;90.50;;;;;;5014305;28;20411;-81
2022/05/11 07:25:27;;;;;;;8.63;6.10;;;21.60;90.80;;;;;;5012839;28;20443;-82
2022/05/11 07:27:54;;;;;;;9.50;6.53;;;21.70;89.20;;;;;;5012599;28;20430;-81
2022/05/11 07:30:30;;;;;;;10.73;6.47;;;21.80;88.70;;;;;;4996277;28;20796;-81
2022/05/11 07:32:56;;;;;;;10.60;7.00;;;21.90;89.20;;;;;;5012904;28;20424;-82
2022/05/11 07:35:22;;;;;;;10.73;6.43;;;22.00;90.20;;;;;;5012503;28;20507;-81
2022/05/11 07:37:48;;;;;;;8.40;5.90;;;22.20;87.90;;;;;;5012853;28;20448;-82
2022/05/11 07:40:16;;;;;;;10.20;5.93;;;22.30;87.70;;;;;;5012351;28;20833;-80
2022/05/11 07:42:43;;;;;;;10.90;6.73;;;22.40;87.50;;;;;;5013501;28;20169;-81
2022/05/11 07:45:11;;;;;;;7.57;6.07;;;22.50;87.10;;;;;;5013282;28;21055;-81
2022/05/11 07:47:37;;;;;;;9.20;6.63;;;22.50;87.30;;;;;;5012632;28;20456;-81
2022/05/11 07:50:03;;;;;;;9.57;5.90;;;22.70;86.00;;;;;;5012441;28;20929;-83
2022/05/11 07:52:30;;;;;;;12.30;5.97;;;22.70;86.60;;;;;;5012320;28;20424;-84
2022/05/11 07:54:55;;;;;;;8.80;6.20;;;22.90;86.60;;;;;;5011644;28;20476;-83
2022/05/11 08:00:08;;;;;;;10.70;6.20;;;23.10;84.80;;;;;;5013626;28;20200;-82
2022/05/11 08:02:35;;;;;;;7.17;6.10;;;23.20;85.80;;;;;;5012344;28;20478;-81
2022/05/11 08:05:06;;;;;;;10.43;6.20;;;23.20;84.20;;;;;;5012052;28;20468;-80
2022/05/11 08:07:41;;;;;;;11.50;6.27;;;23.30;85.70;;;;;;5011893;28;20424;-81
2022/05/11 08:10:11;;;;;;;17.03;6.17;;;23.40;84.10;;;;;;5012240;28;20941;-83
2022/05/11 08:12:36;;;;;;;8.40;5.77;;;23.50;84.30;;;;;;5011943;28;20731;-82
2022/05/11 08:15:03;;;;;;;8.77;5.83;;;23.60;83.70;;;;;;5012513;28;20440;-81
2022/05/11 08:17:32;;;;;;;8.70;6.00;;;23.70;83.90;;;;;;5011837;28;20669;-83
2022/05/11 08:19:59;;;;;;;6.40;5.23;;;23.80;84.60;;;;;;5011889;28;20434;-83
2022/05/11 08:22:26;;;;;;;7.67;5.30;;;23.90;83.70;;;;;;5010683;28;20567;-85
2022/05/11 08:24:52;;;;;;;8.67;5.17;;;24.10;83.00;;;;;;5010112;28;20486;-84
2022/05/11 08:27:21;;;;;;;10.60;5.17;;;24.20;84.00;;;;;;5009993;28;20420;-83
2022/05/11 08:35:16;;;;;;;7.70;5.33;;;24.60;81.90;;;;;;5012506;28;20478;-83
2022/05/11 08:37:42;;;;;;;8.07;5.30;;;24.80;80.70;;;;;;5010823;28;20428;-82
2022/05/11 08:40:12;;;;;;;7.17;5.00;;;24.80;79.50;;;;;;5011276;28;20191;-83
2022/05/11 08:42:37;;;;;;;8.20;4.50;;;25.00;80.70;;;;;;5012741;28;20443;-83
2022/05/11 08:45:03;;;;;;;6.37;4.80;;;25.20;79.60;;;;;;5011403;28;20503;-84
2022/05/11 08:47:48;;;;;;;6.47;4.67;;;25.30;78.90;;;;;;5010630;28;20185;-84
2022/05/11 08:50:19;;;;;;;11.23;5.00;;;25.30;78.80;;;;;;5010455;28;20177;-86
2022/05/11 08:52:59;;;;;;;5.07;4.40;;;25.40;78.10;;;;;;5010605;28;20420;-84
2022/05/11 08:55:45;;;;;;;4.97;4.57;;;25.50;78.20;;;;;;5011077;28;20486;-81
2022/05/11 08:58:15;;;;;;;6.00;4.33;;;25.50;77.20;;;;;;5011633;28;20416;-78
2022/05/11 09:00:43;;;;;;;5.93;4.23;;;25.70;76.60;;;;;;5012816;28;20422;-83
2022/05/11 09:03:26;;;;;;;6.43;4.10;;;25.70;76.80;;;;;;5011500;28;20956;-82
2022/05/11 09:05:52;;;;;;;6.73;4.60;;;25.80;76.50;;;;;;5011635;28;20518;-80
2022/05/11 09:08:17;;;;;;;12.23;4.03;;;25.90;76.90;;;;;;5013538;28;20696;-82
2022/05/11 09:10:44;;;;;;;6.83;4.43;;;26.10;77.00;;;;;;5014207;28;20215;-82
2022/05/11 09:13:13;;;;;;;4.67;3.90;;;26.10;75.80;;;;;;5014119;28;20193;-86
2022/05/11 09:15:53;;;;;;;5.03;4.17;;;26.20;75.70;;;;;;5015568;28;20930;-85
2022/05/11 09:18:19;;;;;;;5.37;4.27;;;26.20;75.60;;;;;;5013837;28;20515;-83
2022/05/11 09:20:48;;;;;;;6.40;4.70;;;26.30;75.80;;;;;;5014164;28;20428;-83
2022/05/11 09:23:14;;;;;;;8.20;4.63;;;26.40;75.20;;;;;;5013347;28;20973;-83
2022/05/11 09:25:58;;;;;;;7.57;3.97;;;26.50;76.20;;;;;;5013617;28;20523;-85
2022/05/11 09:28:29;;;;;;;7.00;4.30;;;26.60;75.50;;;;;;5015277;28;20502;-85
2022/05/11 09:30:57;;;;;;;9.80;4.40;;;26.60;74.80;;;;;;5013868;28;20451;-83
2022/05/11 09:33:25;;;;;;;7.93;4.53;;;26.80;75.70;;;;;;5015280;28;20790;-84
2022/05/11 09:35:51;;;;;;;12.43;4.47;;;26.90;75.70;;;;;;5013645;28;20543;-83
2022/05/11 09:38:17;;;;;;;4.00;3.80;;;27.00;75.30;;;;;;5015107;28;20420;-83
2022/05/11 09:41:01;;;;;;;5.00;3.90;;;27.20;74.00;;;;;;5014487;28;20427;-83
2022/05/11 09:43:33;;;;;;;5.20;4.00;;;27.30;73.20;;;;;;5014585;28;20266;-84
2022/05/11 09:46:00;;;;;;;5.57;4.10;;;27.30;74.10;;;;;;5014880;28;20459;-84
2022/05/11 09:48:32;;;;;;;5.80;4.63;;;27.40;74.90;;;;;;5013914;28;20490;-84
2022/05/11 09:51:14;;;;;;;7.97;4.13;;;27.20;72.80;;;;;;5012783;28;20451;-85
2022/05/11 09:53:55;;;;;;;7.33;4.63;;;27.10;74.20;;;;;;5013494;28;20419;-83
2022/05/11 09:56:33;;;;;;;6.20;4.20;;;27.00;73.40;;;;;;5014820;28;20559;-85
2022/05/11 09:59:22;;;;;;;7.03;4.17;;;26.90;74.40;;;;;;5013302;28;20451;-85
2022/05/11 10:01:51;;;;;;;6.30;4.37;;;27.10;73.80;;;;;;5012291;28;20423;-85
2022/05/11 10:04:20;;;;;;;5.40;4.10;;;27.00;74.00;;;;;;5011766;28;20471;-84
2022/05/11 10:06:54;;;;;;;7.40;4.03;;;27.00;74.10;;;;;;5012568;28;20444;-84
2022/05/11 10:09:42;;;;;;;8.47;4.27;;;26.90;73.10;;;;;;5012954;28;20979;-86
2022/05/11 10:12:15;;;;;;;8.83;5.00;;;27.10;73.70;;;;;;5011960;28;20447;-87
2022/05/11 10:23:54;;;;;;;7.23;4.67;;;27.60;72.90;;;;;;5013091;28;20430;-84
2022/05/11 10:26:31;;;;;;;9.80;4.50;;;27.80;73.70;;;;;;4952142;28;20807;-84
2022/05/11 10:29:38;;;;;;;4.80;4.40;;;27.70;72.30;;;;;;5011449;28;20424;-85
2022/05/11 10:32:14;;;;;;;13.20;4.40;;;27.70;72.60;;;;;;4985262;28;20902;-84
2022/05/11 10:34:48;;;;;;;6.87;5.07;;;27.70;72.90;;;;;;5012042;28;20775;-83
2022/05/11 10:37:31;;;;;;;4.87;4.33;;;27.80;72.40;;;;;;5012126;28;20550;-82
2022/05/11 10:40:17;;;;;;;15.73;4.43;;;28.00;70.30;;;;;;5012746;28;20942;-84
2022/05/11 10:43:13;;;;;;;6.30;3.73;;;27.90;70.50;;;;;;5012287;28;20439;-84
2022/05/11 10:45:49;;;;;;;5.17;4.10;;;27.80;70.80;;;;;;5012364;28;20448;-83
2022/05/11 10:48:35;;;;;;;6.33;3.90;;;28.00;71.30;;;;;;5012744;28;20444;-84
2022/05/11 10:51:13;;;;;;;9.40;4.07;;;28.00;70.30;;;;;;5012117;28;20419;-85
2022/05/11 10:53:55;;;;;;;4.43;3.57;;;28.00;71.20;;;;;;5012369;28;20408;-83
2022/05/11 10:56:26;;;;;;;7.37;3.80;;;28.00;70.00;;;;;;5014730;28;20447;-81
2022/05/11 10:59:27;;;;;;;7.33;3.80;;;28.10;68.80;;;;;;5014578;28;20458;-83
2022/05/11 11:02:34;;;;;;;4.10;3.57;;;28.20;68.80;;;;;;5015383;28;20707;-84
2022/05/11 11:05:13;;;;;;;6.17;3.80;;;28.20;68.20;;;;;;5013898;28;20478;-85
2022/05/11 11:08:06;;;;;;;10.93;4.30;;;28.30;68.30;;;;;;5013604;28;20412;-83
2022/05/11 11:10:47;;;;;;;5.27;3.50;;;28.20;67.60;;;;;;5014308;28;20492;-84
2022/05/11 11:13:22;;;;;;;10.37;4.10;;;28.40;68.40;;;;;;5020036;28;20407;-83
2022/05/11 11:15:50;;;;;;;5.47;3.20;;;28.70;67.80;;;;;;5014896;28;20432;-82
2022/05/11 11:18:19;;;;;;;7.17;4.63;;;28.80;68.30;;;;;;5013195;28;20416;-82
2022/05/11 11:20:46;;;;;;;4.83;3.70;;;28.80;67.60;;;;;;5015463;28;20751;-81
2022/05/11 11:23:15;;;;;;;5.47;3.70;;;29.00;67.10;;;;;;5012245;28;20457;-80
2022/05/11 11:25:47;;;;;;;5.30;3.63;;;28.90;66.50;;;;;;5013109;28;20969;-83
2022/05/11 11:28:15;;;;;;;7.70;3.90;;;28.90;67.50;;;;;;5013134;28;20783;-81
2022/05/11 11:30:59;;;;;;;4.97;3.77;;;29.00;67.50;;;;;;5013201;28;20412;-81
2022/05/11 11:33:54;;;;;;;3.63;3.43;;;29.20;66.60;;;;;;5012777;28;20446;-80
2022/05/11 11:36:28;;;;;;;4.83;3.10;;;29.20;66.90;;;;;;5007318;28;21004;-83
2022/05/11 11:39:02;;;;;;;7.43;3.70;;;29.30;66.30;;;;;;5011892;28;20428;-84
2022/05/11 11:41:52;;;;;;;7.37;3.50;;;29.20;65.70;;;;;;5013554;28;20836;-82
2022/05/11 11:44:26;;;;;;;8.00;3.70;;;29.30;66.20;;;;;;5012034;28;20965;-81
2022/05/11 11:46:53;;;;;;;8.37;3.50;;;29.30;65.20;;;;;;5012925;28;20426;-78
2022/05/11 11:49:18;;;;;;;6.93;3.73;;;29.30;65.80;;;;;;5012209;28;20420;-81
2022/05/11 11:52:01;;;;;;;3.80;3.07;;;29.30;66.30;;;;;;5011986;28;20427;-80
2022/05/11 11:54:44;;;;;;;6.70;3.73;;;29.40;66.20;;;;;;5011158;28;20718;-81
2022/05/11 11:57:13;;;;;;;7.93;3.93;;;29.40;65.80;;;;;;5012823;28;20416;-81
2022/05/11 11:59:42;;;;;;;9.53;4.40;;;29.20;66.00;;;;;;5011700;28;20957;-81
2022/05/11 12:02:32;;;;;;;4.10;3.27;;;29.00;65.90;;;;;;5012654;28;20424;-82
2022/05/11 12:05:04;;;;;;;4.63;3.57;;;28.70;66.40;;;;;;5013661;28;20469;-81
2022/05/11 12:16:24;;;;;;;9.90;3.70;;;28.90;67.60;;;;;;4997912;28;20431;-81
2022/05/11 12:18:50;;;;;;;7.07;4.23;;;28.80;67.10;;;;;;5011895;28;20458;-82
2022/05/11 12:21:32;;;;;;;6.20;4.07;;;28.50;66.20;;;;;;5013086;28;20412;-82
2022/05/11 12:24:01;;;;;;;5.40;3.90;;;28.20;67.40;;;;;;5012193;28;20396;-80
2022/05/11 12:26:40;;;;;;;5.17;3.77;;;28.10;67.60;;;;;;5012693;28;20466;-83
2022/05/11 12:31:55;;;;;;;5.70;3.27;;;28.40;68.60;;;;;;5014462;28;20504;-81
2022/05/11 12:34:27;;;;;;;4.37;3.40;;;28.80;67.90;;;;;;5015088;28;20977;-82
2022/05/11 12:36:53;;;;;;;4.20;3.60;;;28.90;66.80;;;;;;5012129;28;20440;-83
2022/05/11 12:39:29;;;;;;;6.80;3.57;;;28.80;67.60;;;;;;5012561;28;20431;-80
2022/05/11 12:41:56;;;;;;;5.23;3.73;;;28.70;67.30;;;;;;5012035;28;20432;-81
2022/05/11 12:44:28;;;;;;;3.93;3.43;;;28.60;67.00;;;;;;5015573;28;20463;-78
2022/05/11 12:46:56;;;;;;;6.87;3.90;;;28.80;67.30;;;;;;5016141;28;20835;-80
2022/05/11 12:49:22;;;;;;;9.20;4.40;;;28.80;67.10;;;;;;5018870;28;20419;-81
2022/05/11 12:51:53;;;;;;;5.10;3.30;;;28.90;67.30;;;;;;5015320;28;20420;-82
2022/05/11 12:54:26;;;;;;;5.03;3.70;;;28.80;66.80;;;;;;5017085;28;20536;-80
2022/05/11 12:57:02;;;;;;;6.03;3.50;;;28.70;67.30;;;;;;5015244;28;21019;-82
2022/05/11 12:59:29;;;;;;;6.33;4.07;;;28.60;67.30;;;;;;5016194;28;20778;-81
2022/05/11 13:02:15;;;;;;;3.87;3.40;;;28.60;67.50;;;;;;5014471;28;20478;-81
2022/05/11 13:05:09;;;;;;;4.83;3.60;;;28.60;67.10;;;;;;5014668;28;20568;-82
2022/05/11 13:07:47;;;;;;;7.63;4.23;;;28.80;68.40;;;;;;5010800;28;20416;-80
2022/05/11 13:10:25;;;;;;;6.23;3.30;;;28.80;67.10;;;;;;5015246;28;20964;-82
2022/05/11 13:12:53;;;;;;;4.13;3.47;;;29.10;67.00;;;;;;5014046;28;20827;-82
2022/05/11 13:15:31;;;;;;;4.63;3.73;;;29.20;66.30;;;;;;5014903;28;20807;-82
2022/05/11 13:17:56;;;;;;;6.53;3.70;;;29.20;65.40;;;;;;5018635;28;20891;-84
2022/05/11 13:20:25;;;;;;;3.87;3.53;;;29.20;66.20;;;;;;5019861;28;20651;-82
2022/05/11 13:22:54;;;;;;;6.70;3.83;;;29.50;65.20;;;;;;5019840;28;20627;-83
2022/05/11 13:25:46;;;;;;;5.50;3.00;;;29.70;65.20;;;;;;5019685;28;20494;-83
2022/05/11 13:28:38;;;;;;;5.80;3.00;;;30.00;64.90;;;;;;5039605;28;20431;-84
2022/05/11 13:31:26;;;;;;;8.63;3.60;;;30.20;65.60;;;;;;5018699;28;20432;-82
2022/05/11 13:33:52;;;;;;;7.93;3.50;;;30.30;64.90;;;;;;5034493;28;20425;-81
2022/05/11 13:36:18;;;;;;;5.87;3.97;;;30.40;64.30;;;;;;5020972;28;20462;-81